HS Bizet — A8MI3 — position and weather

sailwx.info

Track history (hours):
 
Tides and Currents Weather Stations Pressure Air Temp Water Temp Dewpoint Dewpoint Depression Visibility Wind Speed Wind Dir Waves Ship Positions

HS Bizet

Last reported at 2015-May-24 16:32 UTC. Time now 2015-May-30 08:37 UTC.
Position S 35°58' E 175°44'.

Length 246 m; draft 8.1 m.

Type: Ship (hazmat cat A). MMSI: 636091349.

Date/timePositionNaut miles runAvg speedWind from/ knotsBaromVisibWave heightAir tempDewpointWater temp
2015-May-24 16:32S 35°58' E 175°44'  
2015-May-19 20:28S 37°11' E 150°17'1415.2
2015-May-19 19:33S 37°24' E 150°12'1514.8
2015-May-19 18:33S 37°37' E 150°01'1514.8
2015-May-19 17:33S 37°46' E 149°47'1515.0
2015-May-19 16:33S 37°56' E 149°33'1514.9
2015-May-19 15:33S 38°06' E 149°19'1515.3
2015-May-19 14:33S 38°16' E 149°04'1515.1
2015-May-19 13:32S 38°25' E 148°49'2015.0
2015-May-19 12:13S 38°38' E 148°29'1015.0
2015-May-19 11:33S 38°44' E 148°19'4514.9
2015-May-19 08:33S 39°01' E 147°26'1514.8
2015-May-19 07:33S 39°06' E 147°08'1515.0
2015-May-19 06:33S 39°12' E 146°50'1515.0
2015-May-19 05:33S 39°17' E 146°32'1514.7
2015-May-19 04:33S 39°16' E 146°13'1514.9
2015-May-19 03:33S 39°08' E 145°57'1514.9
2015-May-19 02:33S 39°00' E 145°40'20 0.5
2015-May-17 12:32S 38°50' E 145°19'1616.4
2015-May-17 11:34S 38°58' E 145°36'1616.0
2015-May-17 10:33S 39°07' E 145°54'1615.8
2015-May-17 09:33S 39°13' E 146°13'1615.9
2015-May-17 08:34S 39°08' E 146°32'1616.1
2015-May-17 07:34S 39°04' E 146°52'1615.9
2015-May-17 06:34S 39°01' E 147°12'3216.1
2015-May-17 04:34S 38°55' E 147°53'1515.5
2015-May-17 03:33S 38°53' E 148°13'1515.5
2015-May-17 02:33S 38°49' E 148°32'1616.0
2015-May-17 01:34S 38°45' E 148°52'2315.9
2015-May-17 00:07S 38°39' E 149°20'1116.3
2015-May-16 23:27S 38°37' E 149°34'1416.1
2015-May-16 22:33S 38°33' E 149°51'3014.8
2015-May-16 20:33S 38°12' E 150°18'  
Track history (hours):
 
Tides and Currents Weather Stations Pressure Air Temp Water Temp Dewpoint Dewpoint Depression Visibility Wind Speed Wind Dir Waves Ship Positions

HS Bizet

Last reported at 2015-May-24 16:32 UTC. Time now 2015-May-30 08:37 UTC.
Position S 35°58' E 175°44'.

Length 246 m; draft 8.1 m.

Type: Ship (hazmat cat A). MMSI: 636091349.

Date/timePositionNaut miles runAvg speedWind from/ knotsBaromVisibWave heightAir tempDewpointWater temp
2015-May-24 16:32S 35°58' E 175°44'  
2015-May-19 20:28S 37°11' E 150°17'1415.2
2015-May-19 19:33S 37°24' E 150°12'1514.8
2015-May-19 18:33S 37°37' E 150°01'1514.8
2015-May-19 17:33S 37°46' E 149°47'1515.0
2015-May-19 16:33S 37°56' E 149°33'1514.9
2015-May-19 15:33S 38°06' E 149°19'1515.3
2015-May-19 14:33S 38°16' E 149°04'1515.1
2015-May-19 13:32S 38°25' E 148°49'2015.0
2015-May-19 12:13S 38°38' E 148°29'1015.0
2015-May-19 11:33S 38°44' E 148°19'4514.9
2015-May-19 08:33S 39°01' E 147°26'1514.8
2015-May-19 07:33S 39°06' E 147°08'1515.0
2015-May-19 06:33S 39°12' E 146°50'1515.0
2015-May-19 05:33S 39°17' E 146°32'1514.7
2015-May-19 04:33S 39°16' E 146°13'1514.9
2015-May-19 03:33S 39°08' E 145°57'1514.9
2015-May-19 02:33S 39°00' E 145°40'20 0.5
2015-May-17 12:32S 38°50' E 145°19'1616.4
2015-May-17 11:34S 38°58' E 145°36'1616.0
2015-May-17 10:33S 39°07' E 145°54'1615.8
2015-May-17 09:33S 39°13' E 146°13'1615.9
2015-May-17 08:34S 39°08' E 146°32'1616.1
2015-May-17 07:34S 39°04' E 146°52'1615.9
2015-May-17 06:34S 39°01' E 147°12'3216.1
2015-May-17 04:34S 38°55' E 147°53'1515.5
2015-May-17 03:33S 38°53' E 148°13'1515.5
2015-May-17 02:33S 38°49' E 148°32'1616.0
2015-May-17 01:34S 38°45' E 148°52'2315.9
2015-May-17 00:07S 38°39' E 149°20'1116.3
2015-May-16 23:27S 38°37' E 149°34'1416.1
2015-May-16 22:33S 38°33' E 149°51'3014.8
2015-May-16 20:33S 38°12' E 150°18'  

Dump ship's entire track history